sensor_id;sensor_type;location;lat;lon;timestamp;pressure;altitude;pressure_sealevel;temperature;humidity
31092;BME280;17747;51.070;10.930;2023-01-08T00:00:00;100106.09;;;8.94;58.87
31092;BME280;17747;51.070;10.930;2023-01-08T00:01:33;100113.44;;;8.48;59.81
31092;BME280;17747;51.070;10.930;2023-01-08T00:03:04;100120.91;;;8.64;59.82
31092;BME280;17747;51.070;10.930;2023-01-08T00:04:35;100103.75;;;8.84;59.55
31092;BME280;17747;51.070;10.930;2023-01-08T00:06:07;100104.91;;;8.72;59.22
31092;BME280;17747;51.070;10.930;2023-01-08T00:07:40;100102.13;;;8.80;59.60
31092;BME280;17747;51.070;10.930;2023-01-08T00:09:12;100105.38;;;8.88;59.08
31092;BME280;17747;51.070;10.930;2023-01-08T00:10:58;100101.84;;;8.89;59.29
31092;BME280;17747;51.070;10.930;2023-01-08T00:12:29;100102.59;;;8.94;59.21
31092;BME280;17747;51.070;10.930;2023-01-08T00:14:01;100101.53;;;9.01;58.67
31092;BME280;17747;51.070;10.930;2023-01-08T00:15:33;100093.66;;;8.67;59.21
31092;BME280;17747;51.070;10.930;2023-01-08T00:17:04;100089.66;;;8.51;59.95
31092;BME280;17747;51.070;10.930;2023-01-08T00:18:37;100081.91;;;8.80;59.47
31092;BME280;17747;51.070;10.930;2023-01-08T00:20:09;100081.91;;;8.46;59.82
31092;BME280;17747;51.070;10.930;2023-01-08T00:21:54;100066.88;;;8.50;59.82
31092;BME280;17747;51.070;10.930;2023-01-08T00:25:43;100062.53;;;8.49;59.82
31092;BME280;17747;51.070;10.930;2023-01-08T00:27:14;100073.56;;;8.29;60.34
31092;BME280;17747;51.070;10.930;2023-01-08T00:28:46;100064.59;;;8.02;60.99
31092;BME280;17747;51.070;10.930;2023-01-08T00:30:17;100065.16;;;8.15;60.78
31092;BME280;17747;51.070;10.930;2023-01-08T00:31:49;100058.69;;;7.92;61.17
31092;BME280;17747;51.070;10.930;2023-01-08T00:33:20;100058.03;;;7.83;61.53
31092;BME280;17747;51.070;10.930;2023-01-08T00:34:52;100055.50;;;7.78;61.93
31092;BME280;17747;51.070;10.930;2023-01-08T00:36:23;100046.03;;;7.32;62.82
31092;BME280;17747;51.070;10.930;2023-01-08T00:37:55;100058.09;;;7.79;62.32
31092;BME280;17747;51.070;10.930;2023-01-08T00:39:25;100046.34;;;7.94;61.62
31092;BME280;17747;51.070;10.930;2023-01-08T00:40:58;100045.59;;;7.89;61.58
31092;BME280;17747;51.070;10.930;2023-01-08T00:42:29;100049.09;;;7.90;61.71
31092;BME280;17747;51.070;10.930;2023-01-08T00:44:01;100036.50;;;8.02;61.41
31092;BME280;17747;51.070;10.930;2023-01-08T00:45:32;100046.66;;;7.82;61.88
31092;BME280;17747;51.070;10.930;2023-01-08T00:47:04;100043.19;;;7.80;62.07
31092;BME280;17747;51.070;10.930;2023-01-08T00:48:34;100045.22;;;7.69;61.91
31092;BME280;17747;51.070;10.930;2023-01-08T00:50:08;100035.88;;;7.56;62.16
31092;BME280;17747;51.070;10.930;2023-01-08T00:51:41;100037.41;;;7.64;62.17
31092;BME280;17747;51.070;10.930;2023-01-08T00:53:12;100040.31;;;7.52;62.19
31092;BME280;17747;51.070;10.930;2023-01-08T00:54:44;100038.97;;;7.34;62.70
31092;BME280;17747;51.070;10.930;2023-01-08T00:56:17;100042.09;;;7.52;62.47
31092;BME280;17747;51.070;10.930;2023-01-08T00:57:48;100048.16;;;7.55;62.43
31092;BME280;17747;51.070;10.930;2023-01-08T00:59:20;100041.16;;;7.54;62.45
31092;BME280;17747;51.070;10.930;2023-01-08T01:00:52;100049.03;;;7.56;62.45
31092;BME280;17747;51.070;10.930;2023-01-08T01:02:45;100050.56;;;7.64;62.17
31092;BME280;17747;51.070;10.930;2023-01-08T01:06:17;100043.97;;;7.84;61.41
31092;BME280;17747;51.070;10.930;2023-01-08T01:08:25;100037.25;;;7.72;61.45
31092;BME280;17747;51.070;10.930;2023-01-08T01:14:38;100029.16;;;7.42;62.46
31092;BME280;17747;51.070;10.930;2023-01-08T01:16:09;100029.06;;;7.47;62.61
31092;BME280;17747;51.070;10.930;2023-01-08T01:17:41;100032.38;;;7.55;62.54
31092;BME280;17747;51.070;10.930;2023-01-08T01:19:13;100024.53;;;7.54;62.29
31092;BME280;17747;51.070;10.930;2023-01-08T01:20:45;100022.56;;;7.62;62.10
31092;BME280;17747;51.070;10.930;2023-01-08T01:22:17;100019.94;;;7.62;61.94
31092;BME280;17747;51.070;10.930;2023-01-08T01:24:04;100021.53;;;7.30;62.77
31092;BME280;17747;51.070;10.930;2023-01-08T01:29:57;100021.13;;;7.48;62.43
31092;BME280;17747;51.070;10.930;2023-01-08T01:31:29;100017.97;;;7.34;62.42
31092;BME280;17747;51.070;10.930;2023-01-08T01:33:01;100011.06;;;7.29;62.47
31092;BME280;17747;51.070;10.930;2023-01-08T01:34:32;100020.19;;;7.11;63.06
31092;BME280;17747;51.070;10.930;2023-01-08T01:36:04;100019.28;;;7.12;63.00
31092;BME280;17747;51.070;10.930;2023-01-08T01:37:36;100016.50;;;7.18;62.72
31092;BME280;17747;51.070;10.930;2023-01-08T01:39:08;100016.72;;;7.09;62.73
31092;BME280;17747;51.070;10.930;2023-01-08T01:40:40;100018.75;;;6.95;63.43
31092;BME280;17747;51.070;10.930;2023-01-08T01:42:11;100017.19;;;6.87;63.65
31092;BME280;17747;51.070;10.930;2023-01-08T01:45:56;100013.94;;;6.73;63.95
31092;BME280;17747;51.070;10.930;2023-01-08T01:47:29;100012.44;;;6.60;64.40
31092;BME280;17747;51.070;10.930;2023-01-08T01:49:04;100020.19;;;6.68;64.42
31092;BME280;17747;51.070;10.930;2023-01-08T01:50:37;100016.41;;;6.81;64.25
31092;BME280;17747;51.070;10.930;2023-01-08T01:52:10;100020.03;;;6.75;64.17
31092;BME280;17747;51.070;10.930;2023-01-08T01:53:40;100013.06;;;6.73;64.63
31092;BME280;17747;51.070;10.930;2023-01-08T01:55:12;100006.66;;;6.87;64.24
31092;BME280;17747;51.070;10.930;2023-01-08T01:56:44;100003.38;;;6.78;64.35
31092;BME280;17747;51.070;10.930;2023-01-08T01:58:30;100006.88;;;6.77;64.34
31092;BME280;17747;51.070;10.930;2023-01-08T02:00:02;100005.22;;;6.71;64.62
31092;BME280;17747;51.070;10.930;2023-01-08T02:01:36;100001.78;;;6.69;64.57
31092;BME280;17747;51.070;10.930;2023-01-08T02:03:08;99988.81;;;6.60;64.79
31092;BME280;17747;51.070;10.930;2023-01-08T02:04:40;99994.97;;;6.59;65.14
31092;BME280;17747;51.070;10.930;2023-01-08T02:06:15;99984.63;;;6.53;65.30
31092;BME280;17747;51.070;10.930;2023-01-08T02:07:49;99985.53;;;6.49;65.31
31092;BME280;17747;51.070;10.930;2023-01-08T02:09:27;99990.81;;;6.47;65.62
31092;BME280;17747;51.070;10.930;2023-01-08T02:11:04;99995.28;;;6.44;65.43
31092;BME280;17747;51.070;10.930;2023-01-08T02:12:51;99991.69;;;6.48;65.45
31092;BME280;17747;51.070;10.930;2023-01-08T02:16:16;99984.19;;;6.29;65.71
31092;BME280;17747;51.070;10.930;2023-01-08T02:17:52;99986.34;;;6.54;65.50
31092;BME280;17747;51.070;10.930;2023-01-08T02:19:29;100000.16;;;6.63;64.97
31092;BME280;17747;51.070;10.930;2023-01-08T02:21:06;99987.50;;;6.82;64.38
31092;BME280;17747;51.070;10.930;2023-01-08T02:22:43;99985.69;;;6.86;64.23
31092;BME280;17747;51.070;10.930;2023-01-08T02:24:19;99976.31;;;6.74;63.88
31092;BME280;17747;51.070;10.930;2023-01-08T02:28:13;99980.63;;;6.32;65.49
31092;BME280;17747;51.070;10.930;2023-01-08T02:29:48;99972.59;;;6.41;65.45
31092;BME280;17747;51.070;10.930;2023-01-08T02:31:26;99971.91;;;6.31;65.29
31092;BME280;17747;51.070;10.930;2023-01-08T02:32:58;99967.41;;;6.37;65.30
31092;BME280;17747;51.070;10.930;2023-01-08T02:34:30;99976.00;;;6.45;65.29
31092;BME280;17747;51.070;10.930;2023-01-08T02:36:21;99969.22;;;6.34;65.05
31092;BME280;17747;51.070;10.930;2023-01-08T02:37:54;99965.06;;;6.23;65.25
31092;BME280;17747;51.070;10.930;2023-01-08T02:39:28;99960.72;;;6.22;65.54
31092;BME280;17747;51.070;10.930;2023-01-08T02:41:06;99950.19;;;6.23;65.73
31092;BME280;17747;51.070;10.930;2023-01-08T02:42:40;99948.69;;;6.10;65.77
31092;BME280;17747;51.070;10.930;2023-01-08T02:44:32;99948.41;;;6.25;65.93
31092;BME280;17747;51.070;10.930;2023-01-08T02:46:04;99949.22;;;6.29;65.86
31092;BME280;17747;51.070;10.930;2023-01-08T02:47:52;99945.50;;;6.39;65.94
31092;BME280;17747;51.070;10.930;2023-01-08T02:49:27;99945.66;;;6.31;66.28
31092;BME280;17747;51.070;10.930;2023-01-08T02:51:03;99937.69;;;6.36;66.14
31092;BME280;17747;51.070;10.930;2023-01-08T02:52:54;99932.41;;;6.38;66.11
31092;BME280;17747;51.070;10.930;2023-01-08T02:54:40;99937.78;;;6.33;66.30
31092;BME280;17747;51.070;10.930;2023-01-08T02:56:29;99932.06;;;6.11;66.58
31092;BME280;17747;51.070;10.930;2023-01-08T02:58:02;99931.94;;;6.17;66.61
31092;BME280;17747;51.070;10.930;2023-01-08T03:07:59;99932.31;;;6.44;64.88
31092;BME280;17747;51.070;10.930;2023-01-08T03:09:45;99926.34;;;6.36;65.53
31092;BME280;17747;51.070;10.930;2023-01-08T03:14:03;99919.00;;;6.08;65.83
31092;BME280;17747;51.070;10.930;2023-01-08T03:15:53;99918.50;;;6.34;65.79
31092;BME280;17747;51.070;10.930;2023-01-08T03:17:45;99936.91;;;6.32;65.36
31092;BME280;17747;51.070;10.930;2023-01-08T03:19:21;99946.50;;;6.33;65.28
31092;BME280;17747;51.070;10.930;2023-01-08T03:20:53;99936.97;;;6.28;65.31
31092;BME280;17747;51.070;10.930;2023-01-08T03:22:24;99936.06;;;6.30;65.34
31092;BME280;17747;51.070;10.930;2023-01-08T03:23:58;99942.22;;;6.29;65.16
31092;BME280;17747;51.070;10.930;2023-01-08T03:25:30;99943.31;;;6.16;65.32
31092;BME280;17747;51.070;10.930;2023-01-08T03:27:05;99946.38;;;6.40;65.20
31092;BME280;17747;51.070;10.930;2023-01-08T03:28:38;99943.13;;;6.27;65.09
31092;BME280;17747;51.070;10.930;2023-01-08T03:30:12;99934.97;;;6.42;64.73
31092;BME280;17747;51.070;10.930;2023-01-08T03:31:44;99940.50;;;6.27;64.85
31092;BME280;17747;51.070;10.930;2023-01-08T03:33:17;99938.59;;;6.35;64.84
31092;BME280;17747;51.070;10.930;2023-01-08T03:34:49;99938.53;;;6.38;64.89
31092;BME280;17747;51.070;10.930;2023-01-08T03:36:24;99928.25;;;6.27;65.12
31092;BME280;17747;51.070;10.930;2023-01-08T03:37:59;99923.13;;;6.21;65.19
31092;BME280;17747;51.070;10.930;2023-01-08T03:39:36;99933.03;;;6.07;65.54
31092;BME280;17747;51.070;10.930;2023-01-08T03:41:11;99927.81;;;6.04;65.67
31092;BME280;17747;51.070;10.930;2023-01-08T03:44:50;99922.47;;;6.10;65.69
31092;BME280;17747;51.070;10.930;2023-01-08T03:51:09;99920.03;;;5.99;65.91
31092;BME280;17747;51.070;10.930;2023-01-08T03:52:58;99919.13;;;6.02;65.76
31092;BME280;17747;51.070;10.930;2023-01-08T03:55:10;99919.94;;;6.04;65.58
31092;BME280;17747;51.070;10.930;2023-01-08T03:56:42;99920.81;;;6.06;65.46
31092;BME280;17747;51.070;10.930;2023-01-08T03:58:27;99921.97;;;5.90;65.76
31092;BME280;17747;51.070;10.930;2023-01-08T03:59:59;99915.66;;;6.00;65.67
31092;BME280;17747;51.070;10.930;2023-01-08T04:01:30;99922.66;;;5.99;65.77
31092;BME280;17747;51.070;10.930;2023-01-08T04:03:01;99920.22;;;5.89;65.60
31092;BME280;17747;51.070;10.930;2023-01-08T04:06:45;99915.56;;;6.06;65.53
31092;BME280;17747;51.070;10.930;2023-01-08T04:08:36;99910.47;;;5.97;65.81
31092;BME280;17747;51.070;10.930;2023-01-08T04:10:09;99913.06;;;5.98;65.77
31092;BME280;17747;51.070;10.930;2023-01-08T04:11:40;99916.59;;;5.97;65.94
31092;BME280;17747;51.070;10.930;2023-01-08T04:13:11;99914.63;;;6.09;66.15
31092;BME280;17747;51.070;10.930;2023-01-08T04:14:42;99912.72;;;6.17;65.90
31092;BME280;17747;51.070;10.930;2023-01-08T04:16:14;99907.91;;;6.39;65.48
31092;BME280;17747;51.070;10.930;2023-01-08T04:17:45;99906.59;;;6.16;65.83
31092;BME280;17747;51.070;10.930;2023-01-08T04:19:16;99911.59;;;6.28;65.84
31092;BME280;17747;51.070;10.930;2023-01-08T04:20:48;99919.91;;;6.50;65.47
31092;BME280;17747;51.070;10.930;2023-01-08T04:22:19;99923.44;;;6.49;65.37
31092;BME280;17747;51.070;10.930;2023-01-08T04:23:51;99917.97;;;6.60;65.00
31092;BME280;17747;51.070;10.930;2023-01-08T04:27:26;99918.97;;;6.54;65.27
31092;BME280;17747;51.070;10.930;2023-01-08T04:28:57;99920.03;;;6.46;65.32
31092;BME280;17747;51.070;10.930;2023-01-08T04:30:29;99923.47;;;6.48;65.55
31092;BME280;17747;51.070;10.930;2023-01-08T04:32:03;99928.22;;;6.30;65.72
31092;BME280;17747;51.070;10.930;2023-01-08T04:33:34;99931.34;;;6.48;65.55
31092;BME280;17747;51.070;10.930;2023-01-08T04:35:06;99936.97;;;6.71;65.14
31092;BME280;17747;51.070;10.930;2023-01-08T04:36:37;99930.94;;;6.68;64.96
31092;BME280;17747;51.070;10.930;2023-01-08T04:38:08;99932.81;;;6.61;64.82
31092;BME280;17747;51.070;10.930;2023-01-08T04:39:39;99932.53;;;6.76;64.65
31092;BME280;17747;51.070;10.930;2023-01-08T04:41:11;99933.00;;;6.93;64.41
31092;BME280;17747;51.070;10.930;2023-01-08T04:42:44;99926.38;;;6.77;64.30
31092;BME280;17747;51.070;10.930;2023-01-08T04:44:15;99930.00;;;6.70;64.62
31092;BME280;17747;51.070;10.930;2023-01-08T04:45:47;99924.94;;;6.61;64.84
31092;BME280;17747;51.070;10.930;2023-01-08T04:47:18;99915.66;;;6.88;64.54
31092;BME280;17747;51.070;10.930;2023-01-08T04:48:49;99914.50;;;7.00;63.89
31092;BME280;17747;51.070;10.930;2023-01-08T04:50:21;99910.69;;;6.74;64.60
31092;BME280;17747;51.070;10.930;2023-01-08T04:51:52;99909.28;;;6.58;64.88
31092;BME280;17747;51.070;10.930;2023-01-08T04:53:24;99908.19;;;7.07;64.21
31092;BME280;17747;51.070;10.930;2023-01-08T04:54:55;99911.31;;;7.26;63.59
31092;BME280;17747;51.070;10.930;2023-01-08T04:56:27;99909.63;;;7.23;63.16
31092;BME280;17747;51.070;10.930;2023-01-08T04:57:59;99913.44;;;7.07;63.46
31092;BME280;17747;51.070;10.930;2023-01-08T04:59:31;99906.84;;;6.90;63.85
31092;BME280;17747;51.070;10.930;2023-01-08T05:01:08;99910.69;;;6.74;64.26
31092;BME280;17747;51.070;10.930;2023-01-08T05:02:39;99904.81;;;7.02;63.77
31092;BME280;17747;51.070;10.930;2023-01-08T05:04:10;99910.97;;;7.39;63.03
31092;BME280;17747;51.070;10.930;2023-01-08T05:05:41;99912.56;;;7.46;62.70
31092;BME280;17747;51.070;10.930;2023-01-08T05:07:13;99909.53;;;7.26;62.63
31092;BME280;17747;51.070;10.930;2023-01-08T05:08:44;99901.38;;;7.38;62.68
31092;BME280;17747;51.070;10.930;2023-01-08T05:10:16;99897.22;;;7.28;62.92
31092;BME280;17747;51.070;10.930;2023-01-08T05:11:47;99894.25;;;7.05;63.32
31092;BME280;17747;51.070;10.930;2023-01-08T05:13:20;99884.81;;;6.98;63.32
31092;BME280;17747;51.070;10.930;2023-01-08T05:14:51;99881.28;;;6.99;63.58
31092;BME280;17747;51.070;10.930;2023-01-08T05:16:23;99875.56;;;6.80;63.96
31092;BME280;17747;51.070;10.930;2023-01-08T05:17:58;99874.06;;;7.08;63.51
31092;BME280;17747;51.070;10.930;2023-01-08T05:19:29;99863.03;;;7.30;63.00
31092;BME280;17747;51.070;10.930;2023-01-08T05:21:01;99862.94;;;7.34;62.53
31092;BME280;17747;51.070;10.930;2023-01-08T05:22:34;99862.78;;;7.40;62.28
31092;BME280;17747;51.070;10.930;2023-01-08T05:24:05;99875.22;;;7.34;62.34
31092;BME280;17747;51.070;10.930;2023-01-08T05:25:38;99871.44;;;7.45;62.48
31092;BME280;17747;51.070;10.930;2023-01-08T05:27:08;99863.16;;;7.25;62.44
31092;BME280;17747;51.070;10.930;2023-01-08T05:28:41;99864.31;;;7.12;62.54
31092;BME280;17747;51.070;10.930;2023-01-08T05:30:13;99860.97;;;7.44;62.61
31092;BME280;17747;51.070;10.930;2023-01-08T05:31:44;99852.53;;;7.64;61.79
31092;BME280;17747;51.070;10.930;2023-01-08T05:33:16;99851.72;;;7.62;61.93
31092;BME280;17747;51.070;10.930;2023-01-08T05:34:46;99849.91;;;7.65;61.77
31092;BME280;17747;51.070;10.930;2023-01-08T05:36:18;99856.06;;;7.63;61.77
31092;BME280;17747;51.070;10.930;2023-01-08T05:37:49;99857.78;;;7.64;61.73
31092;BME280;17747;51.070;10.930;2023-01-08T05:39:21;99855.94;;;7.69;61.56
31092;BME280;17747;51.070;10.930;2023-01-08T05:40:52;99857.84;;;7.62;61.57
31092;BME280;17747;51.070;10.930;2023-01-08T05:42:23;99858.59;;;7.67;61.63
31092;BME280;17747;51.070;10.930;2023-01-08T05:43:56;99856.34;;;7.54;61.96
31092;BME280;17747;51.070;10.930;2023-01-08T05:45:27;99852.16;;;7.45;61.86
31092;BME280;17747;51.070;10.930;2023-01-08T05:46:59;99847.19;;;7.34;62.50
31092;BME280;17747;51.070;10.930;2023-01-08T05:48:32;99837.34;;;7.42;62.40
31092;BME280;17747;51.070;10.930;2023-01-08T05:50:05;99841.28;;;7.59;62.00
31092;BME280;17747;51.070;10.930;2023-01-08T05:51:36;99837.63;;;7.30;62.33
31092;BME280;17747;51.070;10.930;2023-01-08T05:53:08;99846.78;;;7.49;62.14
31092;BME280;17747;51.070;10.930;2023-01-08T05:54:39;99841.22;;;7.62;61.70
31092;BME280;17747;51.070;10.930;2023-01-08T05:56:11;99846.34;;;7.32;62.21
31092;BME280;17747;51.070;10.930;2023-01-08T05:57:46;99849.00;;;7.32;62.55
31092;BME280;17747;51.070;10.930;2023-01-08T05:59:18;99843.91;;;7.25;62.61
31092;BME280;17747;51.070;10.930;2023-01-08T06:00:49;99841.81;;;7.02;63.07
31092;BME280;17747;51.070;10.930;2023-01-08T06:02:24;99840.22;;;6.95;63.69
31092;BME280;17747;51.070;10.930;2023-01-08T06:03:57;99841.22;;;6.89;63.68
31092;BME280;17747;51.070;10.930;2023-01-08T06:05:28;99847.13;;;6.99;63.61
31092;BME280;17747;51.070;10.930;2023-01-08T06:07:00;99836.25;;;7.14;63.52
31092;BME280;17747;51.070;10.930;2023-01-08T06:08:33;99836.13;;;7.20;63.39
31092;BME280;17747;51.070;10.930;2023-01-08T06:10:04;99830.88;;;7.20;62.87
31092;BME280;17747;51.070;10.930;2023-01-08T06:11:36;99835.53;;;7.09;63.40
31092;BME280;17747;51.070;10.930;2023-01-08T06:13:08;99832.72;;;7.15;63.48
31092;BME280;17747;51.070;10.930;2023-01-08T06:14:40;99829.19;;;7.16;63.47
31092;BME280;17747;51.070;10.930;2023-01-08T06:16:12;99825.94;;;7.43;63.15
31092;BME280;17747;51.070;10.930;2023-01-08T06:17:43;99820.41;;;7.17;63.33
31092;BME280;17747;51.070;10.930;2023-01-08T06:19:15;99823.53;;;7.34;62.99
31092;BME280;17747;51.070;10.930;2023-01-08T06:20:48;99823.63;;;7.31;63.00
31092;BME280;17747;51.070;10.930;2023-01-08T06:22:19;99818.63;;;7.55;63.05
31092;BME280;17747;51.070;10.930;2023-01-08T06:23:50;99820.00;;;7.35;63.05
31092;BME280;17747;51.070;10.930;2023-01-08T06:25:22;99826.25;;;7.31;63.10
31092;BME280;17747;51.070;10.930;2023-01-08T06:26:53;99833.19;;;7.34;63.09
31092;BME280;17747;51.070;10.930;2023-01-08T06:28:25;99825.09;;;7.41;62.93
31092;BME280;17747;51.070;10.930;2023-01-08T06:29:58;99823.03;;;7.53;62.83
31092;BME280;17747;51.070;10.930;2023-01-08T06:31:29;99824.72;;;7.21;63.43
31092;BME280;17747;51.070;10.930;2023-01-08T06:33:01;99828.88;;;7.31;63.44
31092;BME280;17747;51.070;10.930;2023-01-08T06:34:32;99823.50;;;7.36;63.25
31092;BME280;17747;51.070;10.930;2023-01-08T06:36:04;99822.22;;;7.15;63.48
31092;BME280;17747;51.070;10.930;2023-01-08T06:37:35;99823.47;;;7.00;64.25
31092;BME280;17747;51.070;10.930;2023-01-08T06:39:07;99819.00;;;7.04;64.29
31092;BME280;17747;51.070;10.930;2023-01-08T06:40:38;99820.88;;;6.99;64.41
31092;BME280;17747;51.070;10.930;2023-01-08T06:42:10;99815.09;;;7.22;64.02
31092;BME280;17747;51.070;10.930;2023-01-08T06:43:40;99824.28;;;7.02;64.32
31092;BME280;17747;51.070;10.930;2023-01-08T06:45:13;99820.50;;;7.14;64.05
31092;BME280;17747;51.070;10.930;2023-01-08T06:46:44;99817.13;;;7.09;64.14
31092;BME280;17747;51.070;10.930;2023-01-08T06:48:16;99817.09;;;7.10;64.15
31092;BME280;17747;51.070;10.930;2023-01-08T06:49:47;99816.94;;;7.16;64.17
31092;BME280;17747;51.070;10.930;2023-01-08T06:51:19;99826.44;;;7.24;63.93
31092;BME280;17747;51.070;10.930;2023-01-08T06:52:51;99822.81;;;7.28;63.46
31092;BME280;17747;51.070;10.930;2023-01-08T06:54:23;99830.88;;;7.20;63.86
31092;BME280;17747;51.070;10.930;2023-01-08T06:55:54;99821.88;;;7.30;63.43
31092;BME280;17747;51.070;10.930;2023-01-08T06:57:27;99828.25;;;7.18;64.15
31092;BME280;17747;51.070;10.930;2023-01-08T06:59:00;99823.94;;;7.16;63.97
31092;BME280;17747;51.070;10.930;2023-01-08T07:00:32;99828.78;;;7.34;63.82
31092;BME280;17747;51.070;10.930;2023-01-08T07:02:04;99826.69;;;7.11;64.07
31092;BME280;17747;51.070;10.930;2023-01-08T07:03:35;99826.84;;;7.42;64.27
31092;BME280;17747;51.070;10.930;2023-01-08T07:05:07;99820.88;;;7.36;64.16
31092;BME280;17747;51.070;10.930;2023-01-08T07:06:38;99834.31;;;6.85;65.11
31092;BME280;17747;51.070;10.930;2023-01-08T07:08:10;99827.19;;;7.27;64.93
31092;BME280;17747;51.070;10.930;2023-01-08T07:09:42;99826.38;;;7.25;64.70
31092;BME280;17747;51.070;10.930;2023-01-08T07:11:13;99827.28;;;7.24;64.93
31092;BME280;17747;51.070;10.930;2023-01-08T07:12:45;99822.75;;;7.31;64.89
31092;BME280;17747;51.070;10.930;2023-01-08T07:14:17;99817.66;;;7.25;64.96
31092;BME280;17747;51.070;10.930;2023-01-08T07:15:50;99816.06;;;7.16;65.63
31092;BME280;17747;51.070;10.930;2023-01-08T07:17:21;99824.31;;;7.01;65.75
31092;BME280;17747;51.070;10.930;2023-01-08T07:19:06;99820.50;;;6.77;66.47
31092;BME280;17747;51.070;10.930;2023-01-08T07:20:38;99829.94;;;6.84;66.83
31092;BME280;17747;51.070;10.930;2023-01-08T07:22:10;99827.03;;;6.98;66.46
31092;BME280;17747;51.070;10.930;2023-01-08T07:23:41;99816.41;;;7.02;66.32
31092;BME280;17747;51.070;10.930;2023-01-08T07:25:12;99818.25;;;6.99;66.66
31092;BME280;17747;51.070;10.930;2023-01-08T07:26:44;99819.94;;;7.01;66.40
31092;BME280;17747;51.070;10.930;2023-01-08T07:28:15;99816.28;;;7.07;66.66
31092;BME280;17747;51.070;10.930;2023-01-08T07:29:47;99810.63;;;6.88;66.97
31092;BME280;17747;51.070;10.930;2023-01-08T07:31:19;99819.81;;;7.06;66.94
31092;BME280;17747;51.070;10.930;2023-01-08T07:32:52;99814.25;;;7.18;66.62
31092;BME280;17747;51.070;10.930;2023-01-08T07:34:23;99810.16;;;7.06;66.68
31092;BME280;17747;51.070;10.930;2023-01-08T07:35:55;99815.47;;;7.05;66.81
31092;BME280;17747;51.070;10.930;2023-01-08T07:37:26;99818.00;;;7.08;66.89
31092;BME280;17747;51.070;10.930;2023-01-08T07:38:58;99821.44;;;7.11;66.76
31092;BME280;17747;51.070;10.930;2023-01-08T07:40:29;99818.03;;;7.06;66.79
31092;BME280;17747;51.070;10.930;2023-01-08T07:42:01;99811.13;;;7.39;66.38
31092;BME280;17747;51.070;10.930;2023-01-08T07:43:33;99813.63;;;7.45;66.52
31092;BME280;17747;51.070;10.930;2023-01-08T07:45:05;99812.44;;;7.23;66.46
31092;BME280;17747;51.070;10.930;2023-01-08T07:46:39;99811.53;;;6.87;67.14
31092;BME280;17747;51.070;10.930;2023-01-08T07:48:10;99814.06;;;6.90;67.62
31092;BME280;17747;51.070;10.930;2023-01-08T07:49:44;99815.31;;;7.11;67.50
31092;BME280;17747;51.070;10.930;2023-01-08T07:51:16;99807.94;;;7.27;67.36
31092;BME280;17747;51.070;10.930;2023-01-08T07:52:47;99811.22;;;7.36;66.88
31092;BME280;17747;51.070;10.930;2023-01-08T07:54:19;99816.91;;;7.54;66.77
31092;BME280;17747;51.070;10.930;2023-01-08T07:55:50;99821.25;;;7.55;66.60
31092;BME280;17747;51.070;10.930;2023-01-08T07:57:21;99816.47;;;7.36;66.80
31092;BME280;17747;51.070;10.930;2023-01-08T07:58:53;99811.88;;;7.44;66.83
31092;BME280;17747;51.070;10.930;2023-01-08T08:00:25;99811.94;;;7.43;66.88
31092;BME280;17747;51.070;10.930;2023-01-08T08:01:58;99814.56;;;7.06;67.54
31092;BME280;17747;51.070;10.930;2023-01-08T08:03:29;99815.38;;;7.08;68.00
31092;BME280;17747;51.070;10.930;2023-01-08T08:05:01;99816.38;;;7.39;67.56
31092;BME280;17747;51.070;10.930;2023-01-08T08:06:32;99813.16;;;7.28;67.54
31092;BME280;17747;51.070;10.930;2023-01-08T08:08:06;99818.59;;;7.20;67.85
31092;BME280;17747;51.070;10.930;2023-01-08T08:09:38;99821.91;;;7.29;67.90
31092;BME280;17747;51.070;10.930;2023-01-08T08:11:09;99817.50;;;7.31;67.50
31092;BME280;17747;51.070;10.930;2023-01-08T08:12:43;99818.97;;;7.42;67.55
31092;BME280;17747;51.070;10.930;2023-01-08T08:14:14;99824.16;;;7.07;67.95
31092;BME280;17747;51.070;10.930;2023-01-08T08:15:45;99813.16;;;7.28;67.85
31092;BME280;17747;51.070;10.930;2023-01-08T08:17:18;99821.00;;;7.31;67.96
31092;BME280;17747;51.070;10.930;2023-01-08T08:18:50;99822.25;;;7.13;68.16
31092;BME280;17747;51.070;10.930;2023-01-08T08:20:24;99815.97;;;7.20;67.96
31092;BME280;17747;51.070;10.930;2023-01-08T08:21:59;99817.47;;;7.32;67.94
31092;BME280;17747;51.070;10.930;2023-01-08T08:23:40;99815.38;;;7.08;68.12
31092;BME280;17747;51.070;10.930;2023-01-08T08:25:11;99807.31;;;7.15;68.21
31092;BME280;17747;51.070;10.930;2023-01-08T08:26:44;99801.72;;;6.93;68.70
31092;BME280;17747;51.070;10.930;2023-01-08T08:28:15;99798.88;;;7.03;68.86
31092;BME280;17747;51.070;10.930;2023-01-08T08:29:47;99789.66;;;7.24;68.75
31092;BME280;17747;51.070;10.930;2023-01-08T08:31:18;99787.03;;;7.24;68.24
31092;BME280;17747;51.070;10.930;2023-01-08T08:32:51;99791.16;;;7.34;68.12
31092;BME280;17747;51.070;10.930;2023-01-08T08:34:22;99789.84;;;7.14;68.27
31092;BME280;17747;51.070;10.930;2023-01-08T08:35:54;99788.84;;;7.22;68.33
31092;BME280;17747;51.070;10.930;2023-01-08T08:37:25;99785.44;;;7.15;68.29
31092;BME280;17747;51.070;10.930;2023-01-08T08:38:56;99781.28;;;7.06;68.70
31092;BME280;17747;51.070;10.930;2023-01-08T08:40:28;99775.53;;;7.28;68.37
31092;BME280;17747;51.070;10.930;2023-01-08T08:41:59;99780.06;;;7.23;68.71
31092;BME280;17747;51.070;10.930;2023-01-08T08:43:31;99778.34;;;7.20;68.56
31092;BME280;17747;51.070;10.930;2023-01-08T08:45:03;99774.81;;;7.21;68.07
31092;BME280;17747;51.070;10.930;2023-01-08T08:46:34;99771.53;;;7.11;68.55
31092;BME280;17747;51.070;10.930;2023-01-08T08:48:07;99772.06;;;7.26;68.27
31092;BME280;17747;51.070;10.930;2023-01-08T08:49:38;99774.38;;;7.38;68.39
31092;BME280;17747;51.070;10.930;2023-01-08T08:51:10;99775.69;;;7.56;67.73
31092;BME280;17747;51.070;10.930;2023-01-08T08:52:43;99778.94;;;7.65;67.49
31092;BME280;17747;51.070;10.930;2023-01-08T08:56:28;99768.19;;;7.73;67.12